sensor_id;sensor_type;location;lat;lon;timestamp;pressure;altitude;pressure_sealevel;temperature;humidity
45040;BME280;30778;53.574;7.770;2022-08-19T00:02:04;101377.88;;;15.81;53.28
45040;BME280;30778;53.574;7.770;2022-08-19T00:04:32;101389.38;;;15.80;53.01
45040;BME280;30778;53.574;7.770;2022-08-19T00:07:00;101385.00;;;15.63;52.86
45040;BME280;30778;53.574;7.770;2022-08-19T00:09:27;101386.53;;;15.67;53.23
45040;BME280;30778;53.574;7.770;2022-08-19T00:11:53;101374.66;;;15.60;53.37
45040;BME280;30778;53.574;7.770;2022-08-19T00:14:21;101370.22;;;15.61;53.62
45040;BME280;30778;53.574;7.770;2022-08-19T00:16:48;101366.88;;;15.57;53.71
45040;BME280;30778;53.574;7.770;2022-08-19T00:19:14;101361.72;;;15.55;54.05
45040;BME280;30778;53.574;7.770;2022-08-19T00:21:40;101366.03;;;15.56;53.80
45040;BME280;30778;53.574;7.770;2022-08-19T00:24:11;101360.94;;;15.53;53.99
45040;BME280;30778;53.574;7.770;2022-08-19T00:26:37;101361.84;;;15.52;53.87
45040;BME280;30778;53.574;7.770;2022-08-19T00:29:05;101359.41;;;15.49;53.78
45040;BME280;30778;53.574;7.770;2022-08-19T00:31:31;101357.84;;;15.45;53.80
45040;BME280;30778;53.574;7.770;2022-08-19T00:33:57;101362.97;;;15.48;54.31
45040;BME280;30778;53.574;7.770;2022-08-19T00:36:23;101351.25;;;15.54;53.73
45040;BME280;30778;53.574;7.770;2022-08-19T00:38:49;101346.19;;;15.67;53.23
45040;BME280;30778;53.574;7.770;2022-08-19T00:41:19;101349.72;;;15.66;53.37
45040;BME280;30778;53.574;7.770;2022-08-19T00:46:37;101341.94;;;15.64;53.64
45040;BME280;30778;53.574;7.770;2022-08-19T00:49:09;101339.19;;;15.66;53.47
45040;BME280;30778;53.574;7.770;2022-08-19T00:51:34;101335.00;;;15.62;53.20
45040;BME280;30778;53.574;7.770;2022-08-19T00:54:02;101331.44;;;15.47;53.86
45040;BME280;30778;53.574;7.770;2022-08-19T00:56:28;101339.69;;;15.56;53.51
45040;BME280;30778;53.574;7.770;2022-08-19T00:58:56;101338.84;;;15.56;53.67
45040;BME280;30778;53.574;7.770;2022-08-19T01:01:23;101336.38;;;15.53;53.47
45040;BME280;30778;53.574;7.770;2022-08-19T01:03:49;101338.50;;;15.46;53.79
45040;BME280;30778;53.574;7.770;2022-08-19T01:06:15;101333.56;;;15.40;53.97
45040;BME280;30778;53.574;7.770;2022-08-19T01:08:41;101327.81;;;15.32;54.06
45040;BME280;30778;53.574;7.770;2022-08-19T01:11:07;101328.34;;;15.21;54.14
45040;BME280;30778;53.574;7.770;2022-08-19T01:13:36;101329.09;;;15.07;54.15
45040;BME280;30778;53.574;7.770;2022-08-19T01:16:05;101332.91;;;15.02;54.49
45040;BME280;30778;53.574;7.770;2022-08-19T01:18:32;101335.59;;;15.00;54.56
45040;BME280;30778;53.574;7.770;2022-08-19T01:21:05;101327.09;;;14.95;54.58
45040;BME280;30778;53.574;7.770;2022-08-19T01:23:33;101319.75;;;14.84;54.78
45040;BME280;30778;53.574;7.770;2022-08-19T01:26:17;101322.00;;;14.57;54.80
45040;BME280;30778;53.574;7.770;2022-08-19T01:28:44;101318.88;;;14.49;55.11
45040;BME280;30778;53.574;7.770;2022-08-19T01:31:14;101316.06;;;14.34;55.34
45040;BME280;30778;53.574;7.770;2022-08-19T01:33:40;101316.34;;;14.28;55.31
45040;BME280;30778;53.574;7.770;2022-08-19T01:36:16;101314.00;;;14.22;55.27
45040;BME280;30778;53.574;7.770;2022-08-19T01:38:47;101324.59;;;14.21;55.57
45040;BME280;30778;53.574;7.770;2022-08-19T01:41:13;101316.31;;;14.11;55.28
45040;BME280;30778;53.574;7.770;2022-08-19T01:43:39;101322.91;;;14.01;55.69
45040;BME280;30778;53.574;7.770;2022-08-19T01:46:06;101322.22;;;13.97;55.83
45040;BME280;30778;53.574;7.770;2022-08-19T01:48:38;101327.34;;;13.81;56.07
45040;BME280;30778;53.574;7.770;2022-08-19T01:51:05;101324.50;;;13.67;56.47
45040;BME280;30778;53.574;7.770;2022-08-19T01:53:32;101322.94;;;13.63;56.61
45040;BME280;30778;53.574;7.770;2022-08-19T01:55:57;101317.50;;;13.67;56.33
45040;BME280;30778;53.574;7.770;2022-08-19T01:58:27;101321.88;;;13.67;56.14
45040;BME280;30778;53.574;7.770;2022-08-19T02:00:57;101324.66;;;13.64;56.09
45040;BME280;30778;53.574;7.770;2022-08-19T02:03:22;101328.06;;;13.66;56.14
45040;BME280;30778;53.574;7.770;2022-08-19T02:05:54;101334.44;;;13.60;56.01
45040;BME280;30778;53.574;7.770;2022-08-19T02:08:20;101332.81;;;13.56;56.56
45040;BME280;30778;53.574;7.770;2022-08-19T02:10:45;101329.19;;;13.60;56.02
45040;BME280;30778;53.574;7.770;2022-08-19T02:13:12;101331.81;;;13.60;56.15
45040;BME280;30778;53.574;7.770;2022-08-19T02:15:39;101334.50;;;13.38;56.32
45040;BME280;30778;53.574;7.770;2022-08-19T02:18:05;101335.91;;;13.26;56.54
45040;BME280;30778;53.574;7.770;2022-08-19T02:20:31;101327.59;;;13.17;56.94
45040;BME280;30778;53.574;7.770;2022-08-19T02:22:56;101328.38;;;13.19;56.94
45040;BME280;30778;53.574;7.770;2022-08-19T02:25:22;101328.19;;;13.23;56.61
45040;BME280;30778;53.574;7.770;2022-08-19T02:27:47;101335.31;;;13.20;56.99
45040;BME280;30778;53.574;7.770;2022-08-19T02:30:15;101333.34;;;13.25;56.80
45040;BME280;30778;53.574;7.770;2022-08-19T02:32:41;101325.69;;;13.20;56.83
45040;BME280;30778;53.574;7.770;2022-08-19T02:35:07;101323.66;;;13.06;56.80
45040;BME280;30778;53.574;7.770;2022-08-19T02:37:34;101327.88;;;12.90;57.13
45040;BME280;30778;53.574;7.770;2022-08-19T02:40:18;101337.81;;;12.82;57.29
45040;BME280;30778;53.574;7.770;2022-08-19T02:42:44;101331.69;;;12.83;57.43
45040;BME280;30778;53.574;7.770;2022-08-19T02:45:12;101330.09;;;12.79;57.08
45040;BME280;30778;53.574;7.770;2022-08-19T02:47:38;101327.66;;;12.74;57.18
45040;BME280;30778;53.574;7.770;2022-08-19T02:50:04;101324.47;;;12.66;57.39
45040;BME280;30778;53.574;7.770;2022-08-19T02:52:32;101326.13;;;12.68;57.28
45040;BME280;30778;53.574;7.770;2022-08-19T02:54:57;101325.25;;;12.69;57.29
45040;BME280;30778;53.574;7.770;2022-08-19T02:57:23;101320.00;;;12.69;57.44
45040;BME280;30778;53.574;7.770;2022-08-19T02:59:49;101318.09;;;12.73;57.07
45040;BME280;30778;53.574;7.770;2022-08-19T03:02:15;101313.72;;;12.74;56.97
45040;BME280;30778;53.574;7.770;2022-08-19T03:04:41;101317.28;;;12.71;57.01
45040;BME280;30778;53.574;7.770;2022-08-19T03:07:08;101318.25;;;12.68;57.14
45040;BME280;30778;53.574;7.770;2022-08-19T03:09:36;101312.78;;;12.53;57.00
45040;BME280;30778;53.574;7.770;2022-08-19T03:12:06;101322.88;;;12.41;57.39
45040;BME280;30778;53.574;7.770;2022-08-19T03:14:32;101324.41;;;12.47;57.66
45040;BME280;30778;53.574;7.770;2022-08-19T03:16:59;101324.25;;;12.50;57.48
45040;BME280;30778;53.574;7.770;2022-08-19T03:19:25;101313.63;;;12.53;57.13
45040;BME280;30778;53.574;7.770;2022-08-19T03:21:51;101312.03;;;12.49;57.16
45040;BME280;30778;53.574;7.770;2022-08-19T03:24:18;101323.59;;;12.45;57.47
45040;BME280;30778;53.574;7.770;2022-08-19T03:26:49;101323.84;;;12.39;57.17
45040;BME280;30778;53.574;7.770;2022-08-19T03:29:16;101310.88;;;12.36;57.45
45040;BME280;30778;53.574;7.770;2022-08-19T03:31:42;101315.97;;;12.39;57.39
45040;BME280;30778;53.574;7.770;2022-08-19T03:34:10;101314.16;;;12.41;56.99
45040;BME280;30778;53.574;7.770;2022-08-19T03:36:37;101307.56;;;12.31;57.11
45040;BME280;30778;53.574;7.770;2022-08-19T03:39:03;101306.34;;;12.17;57.08
45040;BME280;30778;53.574;7.770;2022-08-19T03:41:37;101307.09;;;12.21;57.31
45040;BME280;30778;53.574;7.770;2022-08-19T03:44:03;101304.41;;;12.22;57.18
45040;BME280;30778;53.574;7.770;2022-08-19T03:46:31;101303.69;;;12.19;57.25
45040;BME280;30778;53.574;7.770;2022-08-19T03:48:59;101305.38;;;12.20;57.10
45040;BME280;30778;53.574;7.770;2022-08-19T03:51:31;101316.13;;;12.14;57.34
45040;BME280;30778;53.574;7.770;2022-08-19T03:53:58;101320.63;;;12.10;57.25
45040;BME280;30778;53.574;7.770;2022-08-19T03:56:25;101325.84;;;12.10;57.33
45040;BME280;30778;53.574;7.770;2022-08-19T03:58:52;101328.03;;;11.99;57.33
45040;BME280;30778;53.574;7.770;2022-08-19T04:01:20;101329.00;;;11.96;57.47
45040;BME280;30778;53.574;7.770;2022-08-19T04:03:47;101324.63;;;11.97;57.55
45040;BME280;30778;53.574;7.770;2022-08-19T04:06:20;101332.53;;;11.95;57.71
45040;BME280;30778;53.574;7.770;2022-08-19T04:08:47;101332.31;;;12.01;57.43
45040;BME280;30778;53.574;7.770;2022-08-19T04:11:16;101328.59;;;12.07;57.58
45040;BME280;30778;53.574;7.770;2022-08-19T04:13:42;101324.25;;;12.06;57.15
45040;BME280;30778;53.574;7.770;2022-08-19T04:16:10;101328.09;;;11.97;57.22
45040;BME280;30778;53.574;7.770;2022-08-19T04:18:37;101317.91;;;11.90;57.29
45040;BME280;30778;53.574;7.770;2022-08-19T04:21:05;101316.50;;;11.81;57.88
45040;BME280;30778;53.574;7.770;2022-08-19T04:23:31;101318.91;;;11.87;57.97
45040;BME280;30778;53.574;7.770;2022-08-19T04:25:57;101316.94;;;11.92;57.92
45040;BME280;30778;53.574;7.770;2022-08-19T04:28:24;101317.69;;;11.96;57.80
45040;BME280;30778;53.574;7.770;2022-08-19T04:30:52;101309.50;;;11.81;58.07
45040;BME280;30778;53.574;7.770;2022-08-19T04:33:20;101318.63;;;11.93;57.98
45040;BME280;30778;53.574;7.770;2022-08-19T04:35:48;101313.41;;;11.93;57.74
45040;BME280;30778;53.574;7.770;2022-08-19T04:38:16;101309.94;;;11.93;57.90
45040;BME280;30778;53.574;7.770;2022-08-19T04:40:44;101302.06;;;11.93;57.89
45040;BME280;30778;53.574;7.770;2022-08-19T04:43:30;101298.66;;;11.91;57.80
45040;BME280;30778;53.574;7.770;2022-08-19T04:45:56;101296.13;;;11.89;57.68
45040;BME280;30778;53.574;7.770;2022-08-19T04:48:22;101303.41;;;11.81;58.10
45040;BME280;30778;53.574;7.770;2022-08-19T04:50:58;101293.06;;;12.00;57.89
45040;BME280;30778;53.574;7.770;2022-08-19T04:53:31;101304.28;;;12.03;58.01
45040;BME280;30778;53.574;7.770;2022-08-19T04:55:58;101298.75;;;12.11;57.87
45040;BME280;30778;53.574;7.770;2022-08-19T04:58:28;101299.50;;;12.13;58.05
45040;BME280;30778;53.574;7.770;2022-08-19T05:00:54;101308.78;;;12.22;57.83
45040;BME280;30778;53.574;7.770;2022-08-19T05:03:19;101304.28;;;12.25;57.66
45040;BME280;30778;53.574;7.770;2022-08-19T05:05:46;101306.34;;;12.39;57.67
45040;BME280;30778;53.574;7.770;2022-08-19T05:08:15;101308.66;;;12.47;57.31
45040;BME280;30778;53.574;7.770;2022-08-19T05:10:46;101311.00;;;12.53;57.39
45040;BME280;30778;53.574;7.770;2022-08-19T05:13:12;101301.19;;;12.58;57.21
45040;BME280;30778;53.574;7.770;2022-08-19T05:15:38;101305.53;;;12.59;57.08
45040;BME280;30778;53.574;7.770;2022-08-19T05:18:04;101305.09;;;12.70;56.99
45040;BME280;30778;53.574;7.770;2022-08-19T05:20:48;101302.44;;;12.72;56.32
45040;BME280;30778;53.574;7.770;2022-08-19T05:23:32;101318.16;;;12.72;56.72
45040;BME280;30778;53.574;7.770;2022-08-19T05:25:57;101315.63;;;12.68;56.74
45040;BME280;30778;53.574;7.770;2022-08-19T05:28:23;101315.75;;;12.87;56.82
45040;BME280;30778;53.574;7.770;2022-08-19T05:30:49;101307.91;;;13.06;56.27
45040;BME280;30778;53.574;7.770;2022-08-19T05:33:17;101311.66;;;13.40;56.17
45040;BME280;30778;53.574;7.770;2022-08-19T05:35:43;101315.28;;;13.77;55.15
45040;BME280;30778;53.574;7.770;2022-08-19T05:38:09;101315.56;;;14.26;54.38
45040;BME280;30778;53.574;7.770;2022-08-19T05:40:37;101320.72;;;14.99;52.29
45040;BME280;30778;53.574;7.770;2022-08-19T05:43:06;101316.75;;;15.90;51.33
45040;BME280;30778;53.574;7.770;2022-08-19T05:45:32;101317.91;;;16.48;48.66
45040;BME280;30778;53.574;7.770;2022-08-19T05:47:57;101301.78;;;17.56;47.72
45040;BME280;30778;53.574;7.770;2022-08-19T05:50:24;101302.84;;;18.75;44.35
45040;BME280;30778;53.574;7.770;2022-08-19T05:52:52;101299.25;;;20.38;40.20
45040;BME280;30778;53.574;7.770;2022-08-19T05:55:18;101299.31;;;21.52;35.32
45040;BME280;30778;53.574;7.770;2022-08-19T05:57:45;101306.91;;;22.44;34.98
45040;BME280;30778;53.574;7.770;2022-08-19T06:00:12;101303.78;;;23.02;32.71
45040;BME280;30778;53.574;7.770;2022-08-19T06:02:38;101307.97;;;23.26;33.33
45040;BME280;30778;53.574;7.770;2022-08-19T06:05:07;101318.44;;;22.66;33.58
45040;BME280;30778;53.574;7.770;2022-08-19T06:07:35;101317.50;;;22.34;33.26
45040;BME280;30778;53.574;7.770;2022-08-19T06:10:04;101326.34;;;21.91;33.87
45040;BME280;30778;53.574;7.770;2022-08-19T06:12:31;101327.38;;;20.76;35.11
45040;BME280;30778;53.574;7.770;2022-08-19T06:15:04;101319.28;;;21.58;35.29
45040;BME280;30778;53.574;7.770;2022-08-19T06:17:30;101316.44;;;21.82;34.27
45040;BME280;30778;53.574;7.770;2022-08-19T06:19:56;101318.91;;;22.06;33.88
45040;BME280;30778;53.574;7.770;2022-08-19T06:22:22;101315.81;;;23.17;33.13
45040;BME280;30778;53.574;7.770;2022-08-19T06:24:48;101318.34;;;23.19;32.62
45040;BME280;30778;53.574;7.770;2022-08-19T06:27:18;101328.00;;;24.01;30.09
45040;BME280;30778;53.574;7.770;2022-08-19T06:29:44;101326.22;;;24.31;29.45
45040;BME280;30778;53.574;7.770;2022-08-19T06:32:10;101332.69;;;24.57;28.65
45040;BME280;30778;53.574;7.770;2022-08-19T06:34:36;101333.66;;;25.23;28.45
45040;BME280;30778;53.574;7.770;2022-08-19T06:37:01;101333.97;;;25.20;28.36
45040;BME280;30778;53.574;7.770;2022-08-19T06:39:32;101330.56;;;24.61;29.71
45040;BME280;30778;53.574;7.770;2022-08-19T06:42:00;101326.66;;;25.12;29.86
45040;BME280;30778;53.574;7.770;2022-08-19T06:44:30;101322.66;;;25.63;28.68
45040;BME280;30778;53.574;7.770;2022-08-19T06:47:02;101329.59;;;25.19;29.27
45040;BME280;30778;53.574;7.770;2022-08-19T06:49:29;101322.56;;;26.37;27.81
45040;BME280;30778;53.574;7.770;2022-08-19T06:51:57;101320.66;;;26.99;27.06
45040;BME280;30778;53.574;7.770;2022-08-19T06:54:24;101314.00;;;28.54;25.80
45040;BME280;30778;53.574;7.770;2022-08-19T06:56:51;101301.72;;;30.17;22.42
45040;BME280;30778;53.574;7.770;2022-08-19T06:59:19;101303.09;;;30.89;21.96
45040;BME280;30778;53.574;7.770;2022-08-19T07:01:51;101302.41;;;31.32;21.66
45040;BME280;30778;53.574;7.770;2022-08-19T07:04:18;101300.19;;;31.72;20.63
45040;BME280;30778;53.574;7.770;2022-08-19T07:06:44;101298.84;;;32.04;21.00
45040;BME280;30778;53.574;7.770;2022-08-19T07:09:17;101303.00;;;31.64;21.35
45040;BME280;30778;53.574;7.770;2022-08-19T07:11:49;101310.75;;;31.88;21.02
45040;BME280;30778;53.574;7.770;2022-08-19T07:14:17;101307.25;;;32.37;20.15
45040;BME280;30778;53.574;7.770;2022-08-19T07:16:44;101302.94;;;32.43;20.26
45040;BME280;30778;53.574;7.770;2022-08-19T07:19:11;101306.59;;;32.92;19.56
45040;BME280;30778;53.574;7.770;2022-08-19T07:21:37;101312.16;;;33.25;18.95
45040;BME280;30778;53.574;7.770;2022-08-19T07:24:03;101314.00;;;33.59;19.25
45040;BME280;30778;53.574;7.770;2022-08-19T07:26:33;101316.59;;;34.21;18.67
45040;BME280;30778;53.574;7.770;2022-08-19T07:29:04;101318.88;;;34.17;19.05
45040;BME280;30778;53.574;7.770;2022-08-19T07:31:30;101323.72;;;31.78;20.63
45040;BME280;30778;53.574;7.770;2022-08-19T07:33:56;101314.38;;;32.73;20.58
45040;BME280;30778;53.574;7.770;2022-08-19T07:36:27;101326.72;;;33.17;20.19
45040;BME280;30778;53.574;7.770;2022-08-19T07:38:58;101322.41;;;34.04;18.32
45040;BME280;30778;53.574;7.770;2022-08-19T07:41:26;101327.25;;;34.16;18.85
45040;BME280;30778;53.574;7.770;2022-08-19T07:43:54;101328.06;;;32.93;19.51
45040;BME280;30778;53.574;7.770;2022-08-19T07:46:20;101331.91;;;30.36;23.30
45040;BME280;30778;53.574;7.770;2022-08-19T07:48:47;101332.84;;;28.13;26.11
45040;BME280;30778;53.574;7.770;2022-08-19T07:51:18;101342.59;;;28.22;26.18
45040;BME280;30778;53.574;7.770;2022-08-19T07:53:44;101347.09;;;29.60;24.13
45040;BME280;30778;53.574;7.770;2022-08-19T07:56:12;101357.72;;;27.64;26.19
45040;BME280;30778;53.574;7.770;2022-08-19T07:58:40;101349.97;;;27.19;26.83
45040;BME280;30778;53.574;7.770;2022-08-19T08:01:08;101350.34;;;26.54;28.47
45040;BME280;30778;53.574;7.770;2022-08-19T08:03:36;101344.00;;;25.73;30.92
45040;BME280;30778;53.574;7.770;2022-08-19T08:06:20;101348.75;;;26.07;29.92
45040;BME280;30778;53.574;7.770;2022-08-19T08:09:05;101349.44;;;27.15;27.57
45040;BME280;30778;53.574;7.770;2022-08-19T08:12:10;101358.53;;;28.98;24.80
45040;BME280;30778;53.574;7.770;2022-08-19T08:14:40;101364.75;;;30.77;22.15
45040;BME280;30778;53.574;7.770;2022-08-19T08:17:08;101363.22;;;31.28;21.09
45040;BME280;30778;53.574;7.770;2022-08-19T08:19:35;101359.25;;;30.02;23.61
45040;BME280;30778;53.574;7.770;2022-08-19T08:22:01;101368.25;;;29.07;24.74
45040;BME280;30778;53.574;7.770;2022-08-19T08:24:30;101354.84;;;28.49;25.30
45040;BME280;30778;53.574;7.770;2022-08-19T08:27:00;101360.19;;;28.08;26.76
45040;BME280;30778;53.574;7.770;2022-08-19T08:29:27;101372.72;;;29.78;25.35
45040;BME280;30778;53.574;7.770;2022-08-19T08:31:55;101369.19;;;30.09;23.61
45040;BME280;30778;53.574;7.770;2022-08-19T08:34:20;101375.09;;;30.89;22.25
45040;BME280;30778;53.574;7.770;2022-08-19T08:36:47;101376.03;;;30.20;23.32
45040;BME280;30778;53.574;7.770;2022-08-19T08:39:15;101373.25;;;30.28;24.13
45040;BME280;30778;53.574;7.770;2022-08-19T08:44:58;101377.75;;;30.59;23.41
45040;BME280;30778;53.574;7.770;2022-08-19T08:47:25;101383.03;;;30.29;23.52
45040;BME280;30778;53.574;7.770;2022-08-19T08:49:59;101389.25;;;29.28;25.11
45040;BME280;30778;53.574;7.770;2022-08-19T08:52:39;101394.59;;;29.44;24.59
45040;BME280;30778;53.574;7.770;2022-08-19T08:55:15;101405.09;;;29.06;25.81
45040;BME280;30778;53.574;7.770;2022-08-19T09:00:26;101405.69;;;28.02;27.14
45040;BME280;30778;53.574;7.770;2022-08-19T09:02:54;101401.38;;;28.25;27.88
45040;BME280;30778;53.574;7.770;2022-08-19T09:05:21;101400.38;;;28.18;26.76
45040;BME280;30778;53.574;7.770;2022-08-19T09:08:19;101399.38;;;28.36;27.05
45040;BME280;30778;53.574;7.770;2022-08-19T09:10:53;101397.22;;;28.72;27.12
45040;BME280;30778;53.574;7.770;2022-08-19T09:13:26;101396.16;;;27.65;28.16
45040;BME280;30778;53.574;7.770;2022-08-19T09:16:11;101393.91;;;26.38;30.38
45040;BME280;30778;53.574;7.770;2022-08-19T09:18:46;101399.91;;;26.67;30.01
45040;BME280;30778;53.574;7.770;2022-08-19T09:21:14;101395.41;;;27.20;29.51
45040;BME280;30778;53.574;7.770;2022-08-19T09:23:40;101400.00;;;27.62;29.04
45040;BME280;30778;53.574;7.770;2022-08-19T09:26:15;101406.06;;;26.86;30.22
45040;BME280;30778;53.574;7.770;2022-08-19T09:28:43;101400.50;;;27.05;29.33
45040;BME280;30778;53.574;7.770;2022-08-19T09:31:15;101400.28;;;27.17;28.84
45040;BME280;30778;53.574;7.770;2022-08-19T09:33:41;101403.47;;;27.20;30.12
45040;BME280;30778;53.574;7.770;2022-08-19T09:36:11;101397.91;;;26.16;30.45
45040;BME280;30778;53.574;7.770;2022-08-19T09:38:39;101408.16;;;25.18;32.09
45040;BME280;30778;53.574;7.770;2022-08-19T09:41:18;101401.97;;;24.20;33.93
45040;BME280;30778;53.574;7.770;2022-08-19T09:43:46;101393.66;;;24.13;34.38
45040;BME280;30778;53.574;7.770;2022-08-19T09:46:12;101391.78;;;23.54;35.09
45040;BME280;30778;53.574;7.770;2022-08-19T09:48:39;101387.53;;;23.41;34.64
45040;BME280;30778;53.574;7.770;2022-08-19T09:51:12;101388.41;;;23.52;35.79
45040;BME280;30778;53.574;7.770;2022-08-19T09:53:42;101387.16;;;23.56;35.15
45040;BME280;30778;53.574;7.770;2022-08-19T09:56:08;101388.19;;;24.15;34.66
45040;BME280;30778;53.574;7.770;2022-08-19T09:58:34;101390.00;;;25.12;33.17
45040;BME280;30778;53.574;7.770;2022-08-19T10:01:01;101385.41;;;26.24;30.99
45040;BME280;30778;53.574;7.770;2022-08-19T10:03:28;101386.50;;;26.67;30.23
45040;BME280;30778;53.574;7.770;2022-08-19T10:05:56;101386.84;;;26.73;30.66
45040;BME280;30778;53.574;7.770;2022-08-19T10:08:26;101390.84;;;26.33;29.87
45040;BME280;30778;53.574;7.770;2022-08-19T10:10:53;101389.47;;;26.64;30.16
45040;BME280;30778;53.574;7.770;2022-08-19T10:13:22;101383.78;;;25.86;30.99
45040;BME280;30778;53.574;7.770;2022-08-19T10:15:49;101385.31;;;25.23;32.10
45040;BME280;30778;53.574;7.770;2022-08-19T10:18:19;101369.91;;;24.88;32.14
45040;BME280;30778;53.574;7.770;2022-08-19T10:20:49;101380.06;;;25.41;30.91
45040;BME280;30778;53.574;7.770;2022-08-19T10:23:15;101376.94;;;26.29;30.94
45040;BME280;30778;53.574;7.770;2022-08-19T10:25:41;101387.19;;;26.69;28.92
45040;BME280;30778;53.574;7.770;2022-08-19T10:28:06;101382.19;;;26.39;30.69
45040;BME280;30778;53.574;7.770;2022-08-19T10:30:34;101384.44;;;25.42;30.91
45040;BME280;30778;53.574;7.770;2022-08-19T10:33:00;101383.25;;;25.08;32.08
45040;BME280;30778;53.574;7.770;2022-08-19T10:35:26;101379.53;;;26.21;31.72
45040;BME280;30778;53.574;7.770;2022-08-19T10:37:53;101380.03;;;27.04;30.85
45040;BME280;30778;53.574;7.770;2022-08-19T10:40:19;101372.75;;;27.83;29.77
45040;BME280;30778;53.574;7.770;2022-08-19T10:42:44;101369.88;;;27.42;29.16
45040;BME280;30778;53.574;7.770;2022-08-19T10:45:10;101355.28;;;27.45;29.42
45040;BME280;30778;53.574;7.770;2022-08-19T10:47:36;101361.97;;;26.44;30.69
45040;BME280;30778;53.574;7.770;2022-08-19T10:50:03;101365.53;;;26.27;32.77
45040;BME280;30778;53.574;7.770;2022-08-19T10:52:49;101369.84;;;25.64;31.82
45040;BME280;30778;53.574;7.770;2022-08-19T10:55:15;101375.09;;;25.09;33.18
45040;BME280;30778;53.574;7.770;2022-08-19T10:58:00;101367.78;;;25.01;32.52
45040;BME280;30778;53.574;7.770;2022-08-19T11:00:25;101368.00;;;25.65;32.11
45040;BME280;30778;53.574;7.770;2022-08-19T11:02:51;101366.41;;;26.54;31.04
45040;BME280;30778;53.574;7.770;2022-08-19T11:05:18;101361.31;;;26.60;30.69
45040;BME280;30778;53.574;7.770;2022-08-19T11:07:44;101352.13;;;27.15;30.65
45040;BME280;30778;53.574;7.770;2022-08-19T11:10:12;101350.50;;;26.96;29.80
45040;BME280;30778;53.574;7.770;2022-08-19T11:12:40;101354.25;;;26.59;29.95
45040;BME280;30778;53.574;7.770;2022-08-19T11:15:07;101345.94;;;26.70;30.33
45040;BME280;30778;53.574;7.770;2022-08-19T11:17:34;101338.81;;;26.79;30.69
45040;BME280;30778;53.574;7.770;2022-08-19T11:20:01;101341.38;;;26.45;30.98
45040;BME280;30778;53.574;7.770;2022-08-19T11:22:29;101345.41;;;26.67;30.80
45040;BME280;30778;53.574;7.770;2022-08-19T11:24:55;101348.69;;;26.79;29.30
45040;BME280;30778;53.574;7.770;2022-08-19T11:27:21;101349.06;;;27.44;28.64
45040;BME280;30778;53.574;7.770;2022-08-19T11:29:46;101343.31;;;27.73;27.26
45040;BME280;30778;53.574;7.770;2022-08-19T11:32:12;101340.28;;;27.26;28.25
45040;BME280;30778;53.574;7.770;2022-08-19T11:34:38;101340.59;;;26.97;29.11
45040;BME280;30778;53.574;7.770;2022-08-19T11:37:05;101346.09;;;26.51;31.34
45040;BME280;30778;53.574;7.770;2022-08-19T11:39:32;101342.81;;;27.36;29.03
45040;BME280;30778;53.574;7.770;2022-08-19T11:41:59;101341.06;;;28.03;28.35
45040;BME280;30778;53.574;7.770;2022-08-19T11:44:25;101341.25;;;28.67;27.32
45040;BME280;30778;53.574;7.770;2022-08-19T11:46:51;101332.44;;;29.06;26.23
45040;BME280;30778;53.574;7.770;2022-08-19T11:49:18;101340.97;;;29.26;25.75
45040;BME280;30778;53.574;7.770;2022-08-19T11:51:45;101339.19;;;28.86;26.92
45040;BME280;30778;53.574;7.770;2022-08-19T11:54:13;101342.25;;;28.74;27.70
45040;BME280;30778;53.574;7.770;2022-08-19T11:56:40;101344.03;;;29.63;25.30
45040;BME280;30778;53.574;7.770;2022-08-19T11:59:06;101342.13;;;29.24;24.87
45040;BME280;30778;53.574;7.770;2022-08-19T12:01:33;101338.13;;;29.90;24.52
45040;BME280;30778;53.574;7.770;2022-08-19T12:03:59;101337.44;;;29.26;25.27
45040;BME280;30778;53.574;7.770;2022-08-19T12:06:31;101333.63;;;29.12;26.55
45040;BME280;30778;53.574;7.770;2022-08-19T12:08:59;101334.47;;;28.96;25.19
45040;BME280;30778;53.574;7.770;2022-08-19T12:11:25;101336.84;;;28.09;27.05
45040;BME280;30778;53.574;7.770;2022-08-19T12:13:52;101335.38;;;28.31;26.89
45040;BME280;30778;53.574;7.770;2022-08-19T12:16:24;101337.16;;;29.04;26.41
45040;BME280;30778;53.574;7.770;2022-08-19T12:18:50;101340.50;;;29.06;26.97
45040;BME280;30778;53.574;7.770;2022-08-19T12:21:19;101345.94;;;28.16;27.42
45040;BME280;30778;53.574;7.770;2022-08-19T12:23:47;101338.22;;;28.54;26.62
45040;BME280;30778;53.574;7.770;2022-08-19T12:26:13;101343.09;;;28.59;25.79
45040;BME280;30778;53.574;7.770;2022-08-19T12:28:39;101344.63;;;28.53;26.04
45040;BME280;30778;53.574;7.770;2022-08-19T12:31:05;101343.88;;;29.00;26.86
45040;BME280;30778;53.574;7.770;2022-08-19T12:33:31;101335.91;;;29.71;25.44
45040;BME280;30778;53.574;7.770;2022-08-19T12:36:05;101333.66;;;28.95;26.39
45040;BME280;30778;53.574;7.770;2022-08-19T12:38:32;101337.22;;;28.71;26.23
45040;BME280;30778;53.574;7.770;2022-08-19T12:40:58;101336.44;;;29.19;26.27
45040;BME280;30778;53.574;7.770;2022-08-19T12:43:24;101332.09;;;29.01;26.21
45040;BME280;30778;53.574;7.770;2022-08-19T12:45:50;101329.84;;;30.23;26.45
45040;BME280;30778;53.574;7.770;2022-08-19T12:48:15;101331.91;;;30.59;24.43
45040;BME280;30778;53.574;7.770;2022-08-19T12:50:43;101333.97;;;29.48;24.56
45040;BME280;30778;53.574;7.770;2022-08-19T12:53:11;101334.56;;;28.30;26.51
45040;BME280;30778;53.574;7.770;2022-08-19T12:55:36;101329.59;;;29.00;25.22
45040;BME280;30778;53.574;7.770;2022-08-19T12:58:02;101329.56;;;29.16;25.97
45040;BME280;30778;53.574;7.770;2022-08-19T13:00:28;101322.75;;;28.07;26.11
45040;BME280;30778;53.574;7.770;2022-08-19T13:02:53;101323.63;;;26.88;29.01
45040;BME280;30778;53.574;7.770;2022-08-19T13:05:22;101323.22;;;26.57;29.27